Finike, Turkey
Current Conditions -  °F | °C
As of 11:20 AM on Thursday 27 Nov 2014 (Local Time) from LTAI Reporting Station
Clear Clear  
Wind Chill: 59°   Ceiling: Unl
Heat Index: 59°   Visibility: 6mi
Dew Point: 30°   Wind: 13mph
Humidity: 34%   Direction: 330°NNW
Pressure: 30.03"   Gusts: NA
Location:  36.3°N, 30.14°E
Report Text: LTAI 270820Z 33011KT CAVOK 15/M01 Q1017 NOSIG
Loading
Personal Weather Stations






























Interactive Weather Map New forecast layout! Learn more

10-Day Weather Forecast

Advertisements
Track Severe Weather on mobile